Westerly State Information

FAA: WST - ICAO: KWST

Westerly State (Airport) Location

State Rhode Island
County Washington
City Westerly
Westerly State (Airport) is 2 miles southeast of Westerly, RI.
Latitude 41-20-58.6787N
Longitude 071-48-12.3006W
Elevation 81ft

Westerly State METARs

METAR KWST 251653Z AUTO 21009G16KT 10SM CLR 21/18 A2995 RMK AO2 SLP142 T02110178
Altimeter 29.95"
Temperature 21.1°C (70.0°F)
Wind 210° at 9KT with gusts to 16KT
Clouds Skies are clear.
Visibility 10.0mi
Time observed: 2021-10-25T16:53:00Z

Westerly State (Airport) Details

Status Operational
Activation December 1939
Ownership Public
Usage Public
Chart NEW YORK
ATC on-site No
Beacon schedule sunset-sunrise
Beacon color clear green

Westerly State (Airport) Contacts

Owner RHODE ISLAND AIRPORT CORPORATION
Owner address 2000 POST RD, WARWICK, RI 02886
Owner phone (401) 691-2265
Manager GARY G. MATHNA
Manager address 495 PONDTOWN ROAD, DILLSBURG, PA 17019
Manager phone (717) 432-7389

Westerly State Radio Frequencies

Westerly State (Airport) Radio Frequencies

UNICOM 123
Common traffic advisory frequency (CTAF) 123